createdAt,value
2017-11-03T00:02:01.902Z,28.00
2017-11-03T00:04:29.607Z,25.97
2017-11-03T00:06:56.574Z,29.63
2017-11-03T00:09:23.466Z,27.87
2017-11-03T00:11:50.369Z,24.83
2017-11-03T00:14:17.307Z,24.23
2017-11-03T00:16:44.224Z,25.20
2017-11-03T00:19:11.203Z,20.83
2017-11-03T00:21:38.090Z,17.23
2017-11-03T00:24:05.037Z,18.50
2017-11-03T00:26:32.626Z,17.53
2017-11-03T00:28:59.600Z,18.03
2017-11-03T00:31:26.557Z,22.70
2017-11-03T00:33:53.492Z,22.87
2017-11-03T00:36:20.476Z,18.97
2017-11-03T00:38:54.664Z,20.43
2017-11-03T00:41:38.189Z,19.13
2017-11-03T00:44:15.151Z,21.17
2017-11-03T00:46:55.651Z,24.27
2017-11-03T00:52:22.371Z,26.83
2017-11-03T00:55:03.554Z,22.40
2017-11-03T00:57:42.983Z,34.23
2017-11-03T01:00:24.368Z,36.90
2017-11-03T01:03:02.667Z,33.10
2017-11-03T01:05:41.815Z,30.30
2017-11-03T01:11:05.410Z,28.63
2017-11-03T01:13:46.649Z,28.07
2017-11-03T01:16:28.719Z,22.50
2017-11-03T01:19:15.151Z,26.10
2017-11-03T01:21:55.266Z,26.50
2017-11-03T01:24:35.852Z,20.87
2017-11-03T01:27:13.714Z,24.30
2017-11-03T01:29:55.852Z,23.30
2017-11-03T01:32:37.943Z,20.67
2017-11-03T01:35:18.408Z,22.30
2017-11-03T01:38:00.879Z,23.75
2017-11-03T01:40:39.203Z,24.20
2017-11-03T01:43:18.269Z,25.40
2017-11-03T01:45:58.570Z,28.27
2017-11-03T01:48:37.685Z,29.10
2017-11-03T01:51:20.746Z,31.13
2017-11-03T01:54:03.117Z,29.97
2017-11-03T01:56:46.041Z,28.67
2017-11-03T02:02:13.983Z,30.70
2017-11-03T02:07:39.261Z,29.33
2017-11-03T02:10:17.445Z,30.10
2017-11-03T02:12:58.044Z,27.80
2017-11-03T02:15:39.063Z,29.77
2017-11-03T02:21:05.061Z,30.17
2017-11-03T02:23:45.602Z,30.33
2017-11-03T02:29:08.909Z,24.33
2017-11-03T02:31:49.604Z,24.67
2017-11-03T02:48:14.577Z,25.30
2017-11-03T02:53:43.705Z,23.80
2017-11-03T02:56:24.260Z,27.67
2017-11-03T02:59:04.726Z,23.73
2017-11-03T03:01:46.226Z,25.10
2017-11-03T03:07:13.713Z,26.67
2017-11-03T03:09:50.573Z,27.57
2017-11-03T03:12:32.951Z,28.27
2017-11-03T03:15:11.921Z,33.13
2017-11-03T03:17:53.544Z,31.23
2017-11-03T03:23:18.258Z,27.97
2017-11-03T03:28:42.734Z,33.10
2017-11-03T03:31:26.650Z,29.93
2017-11-03T03:34:06.408Z,31.63
2017-11-03T03:42:17.017Z,32.37
2017-11-03T03:45:03.406Z,29.70
2017-11-03T03:47:45.116Z,33.47
2017-11-03T03:53:10.661Z,32.10
2017-11-03T03:55:47.989Z,34.77
2017-11-03T03:58:34.197Z,30.50
2017-11-03T04:01:16.190Z,34.50
2017-11-03T04:03:55.450Z,37.30
2017-11-03T04:06:33.733Z,33.40
2017-11-03T04:11:52.766Z,31.20
2017-11-03T04:14:27.613Z,33.65
2017-11-03T04:17:03.410Z,33.33
2017-11-03T04:19:42.810Z,37.28
2017-11-03T04:25:00.821Z,33.55
2017-11-03T04:35:51.848Z,35.13
2017-11-03T04:38:29.344Z,35.23
2017-11-03T04:41:09.516Z,34.72
2017-11-03T04:43:50.440Z,34.05
2017-11-03T04:46:33.341Z,33.87
2017-11-03T04:49:14.647Z,36.05
2017-11-03T04:51:56.366Z,45.43
2017-11-03T04:54:34.735Z,44.50
2017-11-03T04:57:19.056Z,53.37
2017-11-03T04:59:56.960Z,42.45
2017-11-03T05:02:39.122Z,46.37
2017-11-03T05:05:18.727Z,35.40
2017-11-03T05:08:01.534Z,41.85
2017-11-03T05:13:26.969Z,31.33
2017-11-03T05:18:48.917Z,30.93
2017-11-03T05:21:32.556Z,26.45
2017-11-03T05:24:13.088Z,72.20
2017-11-03T05:26:52.525Z,41.50
2017-11-03T05:29:33.875Z,32.65
2017-11-03T05:32:01.826Z,33.67
2017-11-03T05:34:45.083Z,28.25
2017-11-03T05:37:26.418Z,25.95
2017-11-03T05:40:05.568Z,26.77
2017-11-03T05:42:47.422Z,24.95
2017-11-03T05:45:28.681Z,29.75
2017-11-03T05:48:10.820Z,28.17
2017-11-03T05:50:52.290Z,27.90
2017-11-03T05:53:31.888Z,27.25
2017-11-03T05:58:59.993Z,31.98
2017-11-03T06:01:43.193Z,30.30
2017-11-03T06:04:23.724Z,31.37
2017-11-03T06:07:07.569Z,31.50
2017-11-03T06:09:47.881Z,27.90
2017-11-03T06:12:29.610Z,28.13
2017-11-03T06:15:12.436Z,33.95
2017-11-03T06:20:34.999Z,34.20
2017-11-03T06:23:15.544Z,33.00
2017-11-03T06:26:01.432Z,32.40
2017-11-03T06:28:43.711Z,29.20
2017-11-03T06:31:25.924Z,29.10
2017-11-03T06:34:03.961Z,30.85
2017-11-03T06:36:43.016Z,33.00
2017-11-03T06:39:21.867Z,33.10
2017-11-03T06:42:01.158Z,35.22
2017-11-03T06:44:47.099Z,38.30
2017-11-03T06:47:27.940Z,33.70
2017-11-03T06:53:01.122Z,37.27
2017-11-03T06:55:41.584Z,36.03
2017-11-03T06:58:20.243Z,38.60
2017-11-03T07:00:58.718Z,37.33
2017-11-03T07:03:40.820Z,35.53
2017-11-03T07:06:20.079Z,36.47
2017-11-03T07:09:02.637Z,38.63
2017-11-03T07:11:40.650Z,35.73
2017-11-03T07:14:23.082Z,43.27
2017-11-03T07:17:04.038Z,40.47
2017-11-03T07:19:45.397Z,35.80
2017-11-03T07:22:27.184Z,41.87
2017-11-03T07:27:38.958Z,34.10
2017-11-03T07:30:06.690Z,33.43
2017-11-03T07:32:33.643Z,32.63
2017-11-03T07:35:00.554Z,34.90
2017-11-03T07:37:27.552Z,36.20
2017-11-03T07:39:55.226Z,37.47
2017-11-03T07:42:22.904Z,36.20
2017-11-03T07:45:02.757Z,36.10
2017-11-03T07:47:45.170Z,34.67
2017-11-03T07:50:24.521Z,33.73
2017-11-03T07:53:06.800Z,33.60
2017-11-03T07:55:51.740Z,37.97
2017-11-03T07:58:33.669Z,39.47
2017-11-03T08:01:17.677Z,34.93
2017-11-03T08:04:01.586Z,34.60
2017-11-03T08:06:43.440Z,33.27
2017-11-03T08:09:26.665Z,32.33
2017-11-03T08:12:06.509Z,38.23
2017-11-03T08:14:49.239Z,35.47
2017-11-03T08:17:17.268Z,64.73
2017-11-03T08:19:56.970Z,42.33
2017-11-03T08:22:39.999Z,46.70
2017-11-03T08:25:21.158Z,39.57
2017-11-03T08:28:06.161Z,65.00
2017-11-03T08:30:48.425Z,49.97
2017-11-03T08:33:27.218Z,30.50
2017-11-03T08:36:07.642Z,51.37
2017-11-03T08:38:35.544Z,56.37
2017-11-03T08:41:02.432Z,27.80
2017-11-03T08:43:30.144Z,30.17
2017-11-03T08:45:57.085Z,29.87
2017-11-03T08:48:24.023Z,30.77
2017-11-03T08:50:50.894Z,33.13
2017-11-03T08:53:17.835Z,38.13
2017-11-03T08:55:44.792Z,30.80
2017-11-03T08:58:11.787Z,30.63
2017-11-03T09:00:39.496Z,30.17
2017-11-03T09:03:06.432Z,28.47
2017-11-03T09:05:33.431Z,33.33
2017-11-03T09:08:00.332Z,30.70
2017-11-03T09:10:28.545Z,34.97
2017-11-03T09:12:55.458Z,34.80
2017-11-03T09:15:22.361Z,36.40
2017-11-03T09:17:49.353Z,30.70
2017-11-03T09:20:17.388Z,32.47
2017-11-03T09:22:44.343Z,32.53
2017-11-03T09:25:11.376Z,32.13
2017-11-03T09:27:39.297Z,35.13
2017-11-03T09:30:06.682Z,29.77
2017-11-03T09:32:37.457Z,32.70
2017-11-03T09:35:09.496Z,30.80
2017-11-03T09:37:43.399Z,30.23
2017-11-03T09:40:13.003Z,31.43
2017-11-03T09:42:39.981Z,31.53
2017-11-03T09:45:20.362Z,29.10
2017-11-03T09:47:58.607Z,32.27
2017-11-03T09:50:40.626Z,33.90
2017-11-03T09:53:19.654Z,31.17
2017-11-03T09:56:00.621Z,31.60
2017-11-03T09:58:41.800Z,31.97
2017-11-03T10:01:21.342Z,32.60
2017-11-03T10:06:43.013Z,36.30
2017-11-03T10:09:23.674Z,30.13
2017-11-03T10:12:02.118Z,32.83
2017-11-03T10:14:44.326Z,35.27
2017-11-03T10:17:26.647Z,28.67
2017-11-03T10:20:06.483Z,28.37
2017-11-03T10:22:47.218Z,29.00
2017-11-03T10:25:26.880Z,25.83
2017-11-03T10:28:05.689Z,30.00
2017-11-03T10:30:45.796Z,30.07
2017-11-03T10:33:25.267Z,32.77
2017-11-03T10:36:05.089Z,31.03
2017-11-03T10:38:35.392Z,27.93
2017-11-03T10:41:19.260Z,29.07
2017-11-03T10:43:50.148Z,30.40
2017-11-03T10:46:17.762Z,26.73
2017-11-03T10:48:45.549Z,28.53
2017-11-03T10:51:12.514Z,27.03
2017-11-03T10:53:40.359Z,27.77
2017-11-03T10:56:07.641Z,28.37
2017-11-03T10:58:34.563Z,29.87
2017-11-03T11:01:01.529Z,29.97
2017-11-03T11:03:29.316Z,28.00
2017-11-03T11:05:56.236Z,26.80
2017-11-03T11:08:23.948Z,26.20
2017-11-03T11:10:50.949Z,27.90
2017-11-03T11:13:18.672Z,25.67
2017-11-03T11:15:45.651Z,26.10
2017-11-03T11:18:22.321Z,23.70
2017-11-03T11:21:03.841Z,30.57
2017-11-03T11:23:46.595Z,25.07
2017-11-03T11:26:27.438Z,26.30
2017-11-03T11:28:57.290Z,24.87
2017-11-03T11:31:24.253Z,22.80
2017-11-03T11:34:05.222Z,22.43
2017-11-03T11:36:44.026Z,24.70
2017-11-03T11:39:12.733Z,21.10
2017-11-03T11:41:39.755Z,24.77
2017-11-03T11:44:10.622Z,21.10
2017-11-03T11:46:37.584Z,21.50
2017-11-03T11:49:07.181Z,25.57
2017-11-03T11:51:36.064Z,21.00
2017-11-03T11:54:15.642Z,19.53
2017-11-03T11:56:43.482Z,24.27
2017-11-03T11:59:10.535Z,23.50
2017-11-03T12:01:38.255Z,21.60
2017-11-03T12:04:05.307Z,20.30
2017-11-03T12:06:32.279Z,21.60
2017-11-03T12:08:59.296Z,19.47
2017-11-03T12:11:26.344Z,19.97
2017-11-03T12:13:53.310Z,22.77
2017-11-03T12:16:37.447Z,20.23
2017-11-03T12:19:07.397Z,19.60
2017-11-03T12:21:48.763Z,22.77
2017-11-03T12:24:29.779Z,18.90
2017-11-03T12:27:11.781Z,19.20
2017-11-03T12:35:21.653Z,24.17
2017-11-03T12:38:03.563Z,24.20
2017-11-03T12:40:39.124Z,23.37
2017-11-03T12:43:06.494Z,24.30
2017-11-03T12:45:47.740Z,24.93
2017-11-03T12:48:32.367Z,25.07
2017-11-03T12:51:09.855Z,22.83
2017-11-03T12:53:47.204Z,23.57
2017-11-03T12:56:19.187Z,24.63
2017-11-03T12:58:47.039Z,23.47
2017-11-03T13:01:27.282Z,22.37
2017-11-03T13:04:06.800Z,25.43
2017-11-03T13:06:43.165Z,21.37
2017-11-03T13:09:10.810Z,24.33
2017-11-03T13:11:37.800Z,23.30
2017-11-03T13:14:05.562Z,22.90
2017-11-03T13:16:32.606Z,24.83
2017-11-03T13:18:59.705Z,22.33
2017-11-03T13:21:26.778Z,21.50
2017-11-03T13:23:53.793Z,20.57
2017-11-03T13:26:20.901Z,23.27
2017-11-03T13:28:48.117Z,21.23
2017-11-03T13:31:15.134Z,22.07
2017-11-03T13:33:42.335Z,22.63
2017-11-03T13:36:09.377Z,26.80
2017-11-03T13:38:36.375Z,23.20
2017-11-03T13:41:04.156Z,26.70
2017-11-03T13:43:31.285Z,25.57
2017-11-03T13:45:58.284Z,24.57
2017-11-03T13:48:25.298Z,24.63
2017-11-03T13:50:52.340Z,25.00
2017-11-03T13:53:24.154Z,23.97
2017-11-03T13:55:51.180Z,29.50
2017-11-03T13:58:18.158Z,24.30
2017-11-03T14:00:45.163Z,27.33
2017-11-03T14:03:12.117Z,23.63
2017-11-03T14:05:52.198Z,23.60
2017-11-03T14:08:36.762Z,23.93
2017-11-03T14:11:19.309Z,24.20
2017-11-03T14:13:56.846Z,26.90
2017-11-03T14:16:38.097Z,27.80
2017-11-03T14:19:16.112Z,23.73
2017-11-03T14:21:57.658Z,29.60
2017-11-03T14:24:26.418Z,26.67
2017-11-03T14:26:53.303Z,28.67
2017-11-03T14:29:27.994Z,26.73
2017-11-03T14:34:55.276Z,23.30
2017-11-03T14:37:37.458Z,27.07
2017-11-03T14:40:19.680Z,26.93
2017-11-03T14:43:04.332Z,29.80
2017-11-03T14:45:56.267Z,26.37
2017-11-03T14:48:39.058Z,31.93
2017-11-03T14:51:19.578Z,26.57
2017-11-03T14:54:02.023Z,27.97
2017-11-03T14:56:44.409Z,28.73
2017-11-03T14:59:25.107Z,27.93
2017-11-03T15:01:53.760Z,31.30
2017-11-03T15:04:22.680Z,26.80
2017-11-03T15:06:50.540Z,26.73
2017-11-03T15:09:17.452Z,27.57
2017-11-03T15:11:44.394Z,28.43
2017-11-03T15:14:23.738Z,26.23
2017-11-03T15:16:50.953Z,29.30
2017-11-03T15:19:18.029Z,27.17
2017-11-03T15:21:46.064Z,26.13
2017-11-03T15:24:13.738Z,27.40
2017-11-03T15:26:40.785Z,30.77
2017-11-03T15:29:07.661Z,31.97
2017-11-03T15:31:46.099Z,28.37
2017-11-03T15:34:14.058Z,28.07
2017-11-03T15:36:41.054Z,24.20
2017-11-03T15:39:08.897Z,24.50
2017-11-03T15:41:50.522Z,24.10
2017-11-03T15:44:31.559Z,26.20
2017-11-03T15:47:12.494Z,29.30
2017-11-03T15:49:54.699Z,29.80
2017-11-03T15:52:34.536Z,29.67
2017-11-03T15:55:02.368Z,28.40
2017-11-03T15:57:43.185Z,31.17
2017-11-03T16:00:25.282Z,31.00
2017-11-03T16:03:07.283Z,27.27
2017-11-03T16:05:49.228Z,28.77
2017-11-03T16:08:31.511Z,34.80
2017-11-03T16:11:10.347Z,30.50
2017-11-03T16:13:51.518Z,25.73
2017-11-03T16:16:31.876Z,26.90
2017-11-03T16:19:01.336Z,25.83
2017-11-03T16:21:28.315Z,39.53
2017-11-03T16:24:08.194Z,32.33
2017-11-03T16:26:49.787Z,30.50
2017-11-03T16:29:16.942Z,26.87
2017-11-03T16:31:43.897Z,27.33
2017-11-03T16:34:10.765Z,31.10
2017-11-03T16:36:37.695Z,26.67
2017-11-03T16:39:04.677Z,35.00
2017-11-03T16:41:31.631Z,45.00
2017-11-03T16:43:58.608Z,35.30
2017-11-03T16:46:26.296Z,28.40
2017-11-03T16:48:53.364Z,29.13
2017-11-03T16:51:20.249Z,28.37
2017-11-03T16:53:47.800Z,28.97
2017-11-03T16:56:20.731Z,29.93
2017-11-03T16:58:48.377Z,33.97
2017-11-03T17:01:30.920Z,51.10
2017-11-03T17:04:12.306Z,46.57
2017-11-03T17:06:40.117Z,45.10
2017-11-03T17:09:06.984Z,40.93
2017-11-03T17:11:34.681Z,41.00
2017-11-03T17:14:01.608Z,40.63
2017-11-03T17:16:29.419Z,43.40
2017-11-03T17:18:56.437Z,39.90
2017-11-03T17:21:25.159Z,36.63
2017-11-03T17:23:55.282Z,35.33
2017-11-03T17:26:22.315Z,31.77
2017-11-03T17:28:50.378Z,35.93
2017-11-03T17:31:17.312Z,35.37
2017-11-03T17:33:44.231Z,29.80
2017-11-03T17:36:11.928Z,29.30
2017-11-03T17:38:38.822Z,29.07
2017-11-03T17:41:05.726Z,28.57
2017-11-03T17:43:32.756Z,28.30
2017-11-03T17:45:59.880Z,25.73
2017-11-03T17:48:27.631Z,27.10
2017-11-03T17:50:54.634Z,27.97
2017-11-03T17:53:21.584Z,28.37
2017-11-03T17:55:48.492Z,27.93
2017-11-03T17:58:15.408Z,27.87
2017-11-03T18:00:42.368Z,28.93
2017-11-03T18:03:09.293Z,26.80
2017-11-03T18:05:36.265Z,30.57
2017-11-03T18:08:04.810Z,32.60
2017-11-03T18:10:42.843Z,30.77
2017-11-03T18:13:10.942Z,28.67
2017-11-03T18:15:38.984Z,30.20
2017-11-03T18:18:19.261Z,32.50
2017-11-03T18:21:00.661Z,31.03
2017-11-03T18:23:37.211Z,30.97
2017-11-03T18:26:04.981Z,32.50
2017-11-03T18:28:46.526Z,33.00
2017-11-03T18:31:28.181Z,28.97
2017-11-03T18:34:07.689Z,32.90
2017-11-03T18:36:50.377Z,32.37
2017-11-03T18:39:29.870Z,34.87
2017-11-03T18:42:11.630Z,35.63
2017-11-03T18:44:54.430Z,34.90
2017-11-03T18:47:36.890Z,33.03
2017-11-03T18:50:23.552Z,32.77
2017-11-03T18:53:01.895Z,30.83
2017-11-03T18:55:45.950Z,26.30
2017-11-03T18:58:26.091Z,27.33
2017-11-03T19:01:06.387Z,28.93
2017-11-03T19:03:50.357Z,29.60
2017-11-03T19:11:58.536Z,30.83
2017-11-03T19:14:39.200Z,33.57
2017-11-03T19:20:04.957Z,32.97
2017-11-03T19:22:46.247Z,35.67
2017-11-03T19:25:29.247Z,32.10
2017-11-03T19:28:09.950Z,34.60
2017-11-03T19:30:52.111Z,34.70
2017-11-03T19:33:34.832Z,31.17
2017-11-03T19:36:17.293Z,30.73
2017-11-03T19:41:42.953Z,36.60
2017-11-03T19:44:26.262Z,45.70
2017-11-03T19:47:07.520Z,42.40
2017-11-03T19:49:48.770Z,53.30
2017-11-03T19:52:19.788Z,48.97
2017-11-03T19:55:01.369Z,41.67
2017-11-03T19:57:38.720Z,37.40
2017-11-03T20:00:06.164Z,39.10
2017-11-03T20:02:33.065Z,40.90
2017-11-03T20:05:00.012Z,34.43
2017-11-03T20:07:26.920Z,39.10
2017-11-03T20:09:53.857Z,37.47
2017-11-03T20:12:20.792Z,36.57
2017-11-03T20:14:47.713Z,40.73
2017-11-03T20:17:14.665Z,39.23
2017-11-03T20:19:55.104Z,42.40
2017-11-03T20:22:39.060Z,38.60
2017-11-03T20:25:22.318Z,39.77
2017-11-03T20:28:04.792Z,40.57
2017-11-03T20:30:34.459Z,38.67
2017-11-03T20:33:03.045Z,37.90
2017-11-03T20:35:30.927Z,39.70
2017-11-03T20:37:59.772Z,42.00
2017-11-03T20:40:28.592Z,38.30
2017-11-03T20:42:57.372Z,39.13
2017-11-03T20:45:25.829Z,42.67
2017-11-03T20:47:58.211Z,38.90
2017-11-03T20:50:28.085Z,46.90
2017-11-03T20:52:55.841Z,39.07
2017-11-03T20:55:23.713Z,39.60
2017-11-03T20:57:51.404Z,47.83
2017-11-03T21:00:18.686Z,51.70
2017-11-03T21:02:45.758Z,52.87
2017-11-03T21:05:13.572Z,45.40
2017-11-03T21:07:40.617Z,48.65
2017-11-03T21:10:07.614Z,54.55
2017-11-03T21:12:36.257Z,51.60
2017-11-03T21:15:04.122Z,47.47
2017-11-03T21:17:31.822Z,44.85
2017-11-03T21:19:58.998Z,45.30
2017-11-03T21:22:25.950Z,55.33
2017-11-03T21:24:54.868Z,50.22
2017-11-03T21:27:24.073Z,47.38
2017-11-03T21:29:51.841Z,48.08
2017-11-03T21:32:18.769Z,49.80
2017-11-03T21:34:45.722Z,53.70
2017-11-03T21:37:12.608Z,44.92
2017-11-03T21:39:39.680Z,41.10
2017-11-03T21:42:09.365Z,42.80
2017-11-03T21:44:36.311Z,45.75
2017-11-03T21:47:03.311Z,47.13
2017-11-03T21:49:30.522Z,43.67
2017-11-03T21:51:58.061Z,50.12
2017-11-03T21:54:27.407Z,40.40
2017-11-03T21:56:54.498Z,42.00
2017-11-03T21:59:21.662Z,42.97
2017-11-03T22:01:48.741Z,74.65
2017-11-03T22:04:15.800Z,40.28
2017-11-03T22:06:43.472Z,82.57
2017-11-03T22:09:10.353Z,60.58
2017-11-03T22:11:37.298Z,134.60
2017-11-03T22:14:04.369Z,36.67
2017-11-03T22:16:31.320Z,71.32
2017-11-03T22:18:58.236Z,92.00
2017-11-03T22:21:25.222Z,76.80
2017-11-03T22:23:52.121Z,64.37
2017-11-03T22:26:19.144Z,33.20
2017-11-03T22:28:46.773Z,55.38
2017-11-03T22:31:13.732Z,43.50
2017-11-03T22:33:40.628Z,36.97
2017-11-03T22:36:09.373Z,47.70
2017-11-03T22:38:36.376Z,42.92
2017-11-03T22:41:06.784Z,53.60
2017-11-03T22:43:34.209Z,36.42
2017-11-03T22:46:01.203Z,36.42
2017-11-03T22:48:28.085Z,43.90
2017-11-03T22:50:55.021Z,52.90
2017-11-03T22:53:22.001Z,51.40
2017-11-03T22:55:51.710Z,49.35
2017-11-03T22:58:18.718Z,48.22
2017-11-03T23:00:46.685Z,48.53
2017-11-03T23:03:14.021Z,45.80
2017-11-03T23:05:41.608Z,39.63
2017-11-03T23:08:12.857Z,40.03
2017-11-03T23:10:40.730Z,42.65
2017-11-03T23:13:07.716Z,48.17
2017-11-03T23:15:36.099Z,40.90
2017-11-03T23:18:04.244Z,44.10
2017-11-03T23:20:32.149Z,42.35
2017-11-03T23:23:00.540Z,37.15
2017-11-03T23:25:28.201Z,42.72
2017-11-03T23:27:55.205Z,46.90
2017-11-03T23:30:23.367Z,44.17
2017-11-03T23:32:51.164Z,47.38
2017-11-03T23:35:19.447Z,46.55
2017-11-03T23:37:48.000Z,43.25
2017-11-03T23:40:16.095Z,35.13
2017-11-03T23:42:45.553Z,46.55
2017-11-03T23:45:13.572Z,38.47
2017-11-03T23:47:42.556Z,42.70
2017-11-03T23:50:11.412Z,44.72
2017-11-03T23:52:39.285Z,45.05
2017-11-03T23:55:07.580Z,45.72
2017-11-03T23:57:34.595Z,42.45
